createdAt,value
2018-02-22T00:03:40.211Z,2.40
2018-02-22T00:08:41.511Z,2.42
2018-02-22T00:13:42.835Z,2.38
2018-02-22T00:18:44.242Z,2.37
2018-02-22T00:23:45.673Z,2.21
2018-02-22T00:28:47.727Z,2.26
2018-02-22T00:33:49.215Z,2.26
2018-02-22T00:38:50.542Z,2.25
2018-02-22T00:43:51.902Z,2.32
2018-02-22T00:48:53.326Z,2.31
2018-02-22T00:53:55.415Z,2.23
2018-02-22T00:58:56.755Z,2.20
2018-02-22T01:03:58.138Z,2.06
2018-02-22T01:08:59.551Z,1.93
2018-02-22T01:14:00.915Z,1.82
2018-02-22T01:19:02.424Z,1.93
2018-02-22T01:24:03.760Z,1.75
2018-02-22T01:29:05.069Z,1.91
2018-02-22T01:34:06.684Z,1.94
2018-02-22T01:39:08.037Z,1.86
2018-02-22T01:44:09.378Z,1.87
2018-02-22T01:49:10.856Z,1.89
2018-02-22T01:54:12.213Z,1.81
2018-02-22T01:59:13.519Z,1.73
2018-02-22T02:04:15.624Z,1.72
2018-02-22T02:09:17.724Z,1.45
2018-02-22T02:14:19.062Z,1.32
2018-02-22T02:19:20.423Z,1.43
2018-02-22T02:24:21.768Z,1.49
2018-02-22T02:29:23.124Z,1.48
2018-02-22T02:34:24.460Z,1.19
2018-02-22T02:39:25.793Z,1.16
2018-02-22T02:44:27.115Z,1.21
2018-02-22T02:49:28.490Z,1.21
2018-02-22T02:54:29.831Z,1.23
2018-02-22T02:59:31.178Z,1.25
2018-02-22T03:04:32.535Z,1.23
2018-02-22T03:09:33.912Z,1.23
2018-02-22T03:14:35.986Z,1.26
2018-02-22T03:19:37.372Z,1.17
2018-02-22T03:24:38.815Z,1.16
2018-02-22T03:29:40.899Z,1.16
2018-02-22T03:34:42.295Z,1.04
2018-02-22T03:39:44.393Z,1.01
2018-02-22T03:44:45.754Z,0.97
2018-02-22T03:49:47.094Z,1.01
2018-02-22T03:54:49.251Z,0.86
2018-02-22T03:59:50.624Z,0.84
2018-02-22T04:04:51.975Z,0.82
2018-02-22T04:09:54.155Z,0.89
2018-02-22T04:14:55.506Z,0.88
2018-02-22T04:19:56.923Z,0.74
2018-02-22T04:24:58.258Z,0.70
2018-02-22T04:30:00.359Z,0.70
2018-02-22T04:35:02.461Z,0.61
2018-02-22T04:40:04.569Z,0.51
2018-02-22T04:45:06.020Z,0.49
2018-02-22T04:50:07.433Z,0.49
2018-02-22T04:55:08.782Z,0.51
2018-02-22T05:00:10.177Z,0.49
2018-02-22T05:05:11.507Z,0.42
2018-02-22T05:10:12.847Z,0.33
2018-02-22T05:15:14.295Z,0.23
2018-02-22T05:20:15.685Z,0.30
2018-02-22T05:25:17.103Z,0.32
2018-02-22T05:30:18.429Z,0.33
2018-02-22T05:35:20.719Z,0.32
2018-02-22T05:40:22.070Z,0.24
2018-02-22T05:45:23.410Z,0.35
2018-02-22T05:50:24.769Z,0.35
2018-02-22T05:55:26.932Z,0.35
2018-02-22T06:00:28.280Z,0.22
2018-02-22T06:05:29.614Z,0.17
2018-02-22T06:10:30.984Z,0.23
2018-02-22T06:15:32.352Z,0.19
2018-02-22T06:20:33.684Z,0.11
2018-02-22T06:25:35.040Z,0.20
2018-02-22T06:30:36.402Z,0.14
2018-02-22T06:35:38.561Z,0.28
2018-02-22T06:40:40.007Z,0.32
2018-02-22T06:45:42.332Z,0.26
2018-02-22T06:50:44.408Z,0.26
2018-02-22T06:55:45.726Z,0.10
2018-02-22T07:00:47.808Z,0.12
2018-02-22T07:05:49.177Z,0.28
2018-02-22T07:10:50.519Z,0.27
2018-02-22T07:15:51.874Z,0.40
2018-02-22T07:20:53.278Z,0.46
2018-02-22T07:25:55.462Z,0.50
2018-02-22T07:30:56.792Z,0.54
2018-02-22T07:35:58.872Z,0.50
2018-02-22T07:41:00.940Z,0.57
2018-02-22T07:46:02.319Z,0.65
2018-02-22T07:51:03.663Z,0.61
2018-02-22T07:56:05.022Z,1.09
2018-02-22T08:01:06.424Z,1.17
2018-02-22T08:06:07.853Z,1.52
2018-02-22T08:11:09.972Z,1.74
2018-02-22T08:16:11.362Z,1.95
2018-02-22T08:21:12.728Z,2.23
2018-02-22T08:26:14.083Z,2.17
2018-02-22T08:31:15.443Z,2.02
2018-02-22T08:36:16.844Z,2.11
2018-02-22T08:41:18.188Z,2.37
2018-02-22T08:46:19.540Z,2.50
2018-02-22T08:51:20.871Z,2.24
2018-02-22T08:56:22.972Z,2.23
2018-02-22T09:01:25.070Z,2.69
2018-02-22T09:06:26.458Z,2.71
2018-02-22T09:11:27.805Z,2.34
2018-02-22T09:16:29.183Z,2.34
2018-02-22T09:21:30.562Z,2.50
2018-02-22T09:26:31.926Z,2.81
2018-02-22T09:31:33.239Z,3.15
2018-02-22T09:36:34.602Z,3.35
2018-02-22T09:41:35.971Z,3.50
2018-02-22T09:46:37.332Z,3.65
2018-02-22T09:51:38.683Z,3.51
2018-02-22T09:56:40.103Z,3.19
2018-02-22T10:01:41.483Z,3.12
2018-02-22T10:06:42.826Z,2.90
2018-02-22T10:11:50.300Z,2.49
2018-02-22T10:16:52.366Z,2.79
2018-02-22T10:21:53.800Z,3.00
2018-02-22T10:26:55.167Z,3.04
2018-02-22T10:31:56.504Z,3.27
2018-02-22T10:36:57.855Z,3.29
2018-02-22T10:41:59.992Z,3.23
2018-02-22T10:47:01.378Z,3.64
2018-02-22T10:52:02.779Z,3.68
2018-02-22T10:57:04.100Z,3.78
2018-02-22T11:02:11.411Z,4.11
2018-02-22T11:07:12.803Z,4.24
2018-02-22T11:12:14.152Z,4.26
2018-02-22T11:17:16.346Z,4.47
2018-02-22T11:22:17.691Z,4.30
2018-02-22T11:27:19.028Z,4.46
2018-02-22T11:32:20.421Z,4.30
2018-02-22T11:37:22.583Z,4.44
2018-02-22T11:42:23.911Z,4.66
2018-02-22T11:47:25.252Z,4.87
2018-02-22T11:52:26.615Z,5.07
2018-02-22T11:57:28.729Z,4.76
2018-02-22T12:02:30.864Z,5.02
2018-02-22T12:07:32.182Z,5.23
2018-02-22T12:12:33.532Z,5.43
2018-02-22T12:17:34.868Z,5.73
2018-02-22T12:22:36.260Z,5.43
2018-02-22T12:27:37.636Z,5.54
2018-02-22T12:32:39.052Z,5.50
2018-02-22T12:37:40.454Z,5.63
2018-02-22T12:42:41.874Z,5.58
2018-02-22T12:47:43.240Z,6.00
2018-02-22T12:52:45.375Z,6.22
2018-02-22T12:57:46.742Z,6.31
2018-02-22T13:02:48.855Z,6.57
2018-02-22T13:07:50.227Z,6.24
2018-02-22T13:12:51.558Z,6.20
2018-02-22T13:17:52.938Z,7.01
2018-02-22T13:22:54.324Z,7.05
2018-02-22T13:27:55.712Z,6.90
2018-02-22T13:33:15.411Z,6.90
2018-02-22T13:38:35.171Z,6.99
2018-02-22T13:43:36.572Z,7.08
2018-02-22T13:54:26.381Z,7.06
2018-02-22T13:59:27.783Z,6.81
2018-02-22T14:04:29.125Z,7.03
2018-02-22T14:09:30.451Z,6.98
2018-02-22T14:14:31.830Z,7.06
2018-02-22T14:19:33.157Z,7.21
2018-02-22T14:24:34.526Z,7.23
2018-02-22T14:29:35.897Z,7.03
2018-02-22T14:34:37.324Z,7.11
2018-02-22T14:39:38.723Z,7.02
2018-02-22T14:44:40.174Z,7.30
2018-02-22T14:49:41.522Z,7.20
2018-02-22T14:54:43.635Z,7.03
2018-02-22T14:59:45.012Z,6.86
2018-02-22T15:04:47.124Z,6.63
2018-02-22T15:09:49.307Z,6.79
2018-02-22T15:14:50.626Z,6.94
2018-02-22T15:19:52.033Z,6.90
2018-02-22T15:24:53.408Z,7.15
2018-02-22T15:29:54.780Z,7.17
2018-02-22T15:34:56.879Z,7.08
2018-02-22T15:39:58.254Z,6.86
2018-02-22T15:44:59.658Z,6.94
2018-02-22T15:50:01.015Z,6.62
2018-02-22T15:55:02.438Z,6.66
2018-02-22T16:00:03.857Z,6.49
2018-02-22T16:10:39.862Z,6.35
2018-02-22T16:15:41.312Z,6.43
2018-02-22T16:20:42.733Z,6.27
2018-02-22T16:25:44.115Z,6.28
2018-02-22T16:30:45.530Z,5.93
2018-02-22T16:35:46.920Z,6.01
2018-02-22T16:40:48.285Z,6.15
2018-02-22T16:45:49.696Z,5.82
2018-02-22T16:50:51.073Z,5.77
2018-02-22T16:55:52.435Z,5.77
2018-02-22T17:00:55.376Z,5.76
2018-02-22T17:05:56.755Z,5.76
2018-02-22T17:10:58.854Z,5.73
2018-02-22T17:16:00.945Z,5.74
2018-02-22T17:21:02.309Z,5.53
2018-02-22T17:26:09.740Z,5.69
2018-02-22T17:31:17.160Z,5.56
2018-02-22T17:36:24.485Z,5.43
2018-02-22T17:41:32.134Z,5.47
2018-02-22T17:46:33.495Z,5.35
2018-02-22T17:51:34.980Z,5.46
2018-02-22T17:56:37.136Z,5.28
2018-02-22T18:01:38.497Z,5.35
2018-02-22T18:06:39.838Z,5.13
2018-02-22T18:11:41.213Z,5.29
2018-02-22T18:16:42.587Z,5.29
2018-02-22T18:21:44.013Z,5.27
2018-02-22T18:26:45.419Z,5.36
2018-02-22T18:31:47.656Z,5.10
2018-02-22T18:36:49.036Z,5.10
2018-02-22T18:41:53.187Z,5.07
2018-02-22T18:46:54.668Z,5.14
2018-02-22T18:51:56.061Z,5.04
2018-02-22T18:56:57.455Z,4.87
2018-02-22T19:01:59.574Z,4.86
2018-02-22T19:07:00.975Z,4.79
2018-02-22T19:12:02.401Z,4.68
2018-02-22T19:17:03.737Z,4.54
2018-02-22T19:22:05.112Z,4.65
2018-02-22T19:27:07.216Z,4.61
2018-02-22T19:32:08.635Z,4.42
2018-02-22T19:37:10.661Z,4.27
2018-02-22T19:42:12.106Z,4.24
2018-02-22T19:47:13.499Z,4.47
2018-02-22T19:52:14.929Z,4.44
2018-02-22T19:57:17.193Z,4.37
2018-02-22T20:02:18.568Z,4.32
2018-02-22T20:07:19.968Z,4.47
2018-02-22T20:12:21.407Z,4.56
2018-02-22T20:17:23.016Z,4.49
2018-02-22T20:22:25.101Z,4.47
2018-02-22T20:27:26.464Z,4.47
2018-02-22T20:32:27.814Z,4.48
2018-02-22T20:37:29.952Z,4.60
2018-02-22T20:42:31.484Z,4.52
2018-02-22T20:47:32.926Z,4.57
2018-02-22T20:52:41.153Z,4.57
2018-02-22T20:57:42.621Z,4.51
2018-02-22T21:02:44.056Z,4.49
2018-02-22T21:07:45.424Z,4.57
2018-02-22T21:12:46.736Z,4.60
2018-02-22T21:17:48.138Z,4.59
2018-02-22T21:22:49.651Z,4.41
2018-02-22T21:27:51.032Z,4.52
2018-02-22T21:32:52.372Z,4.48
2018-02-22T21:37:53.694Z,4.48
2018-02-22T21:42:55.040Z,4.34
2018-02-22T21:47:56.466Z,4.11
2018-02-22T21:52:57.840Z,4.08
2018-02-22T21:57:59.184Z,3.95
2018-02-22T22:03:01.280Z,4.21
2018-02-22T22:08:02.660Z,4.16
2018-02-22T22:13:04.608Z,4.30
2018-02-22T22:18:06.002Z,4.18
2018-02-22T22:23:07.399Z,4.07
2018-02-22T22:28:08.799Z,4.20
2018-02-22T22:33:10.185Z,4.21
2018-02-22T22:38:11.568Z,4.28
2018-02-22T22:43:13.103Z,4.24
2018-02-22T22:48:14.430Z,4.09
2018-02-22T22:53:16.665Z,4.05
2018-02-22T22:58:18.084Z,3.98
2018-02-22T23:03:19.414Z,4.04
2018-02-22T23:08:21.534Z,4.13
2018-02-22T23:13:23.588Z,4.16
2018-02-22T23:18:25.023Z,4.02
2018-02-22T23:23:27.131Z,4.08
2018-02-22T23:28:29.187Z,4.02
2018-02-22T23:33:30.657Z,3.95
2018-02-22T23:38:32.048Z,3.95
2018-02-22T23:43:33.514Z,4.06
2018-02-22T23:48:34.910Z,3.99
2018-02-22T23:53:36.988Z,3.81
2018-02-22T23:58:38.360Z,3.80
